sensor_id;sensor_type;location;lat;lon;timestamp;P1;durP1;ratioP1;P2;durP2;ratioP2
52848;SDS011;38714;53.180;5.812;2022-12-18T00:01:17;55.37;;;21.83;;
52848;SDS011;38714;53.180;5.812;2022-12-18T00:03:51;45.93;;;24.50;;
52848;SDS011;38714;53.180;5.812;2022-12-18T00:06:19;35.27;;;22.87;;
52848;SDS011;38714;53.180;5.812;2022-12-18T00:08:47;34.23;;;20.30;;
52848;SDS011;38714;53.180;5.812;2022-12-18T00:11:14;46.80;;;23.07;;
52848;SDS011;38714;53.180;5.812;2022-12-18T00:13:41;40.17;;;23.93;;
52848;SDS011;38714;53.180;5.812;2022-12-18T00:16:09;39.53;;;25.87;;
52848;SDS011;38714;53.180;5.812;2022-12-18T00:18:36;45.67;;;26.13;;
52848;SDS011;38714;53.180;5.812;2022-12-18T00:21:03;44.17;;;22.53;;
52848;SDS011;38714;53.180;5.812;2022-12-18T00:23:31;42.33;;;20.23;;
52848;SDS011;38714;53.180;5.812;2022-12-18T00:25:59;40.00;;;22.13;;
52848;SDS011;38714;53.180;5.812;2022-12-18T00:28:29;27.70;;;18.20;;
52848;SDS011;38714;53.180;5.812;2022-12-18T00:31:02;40.07;;;21.60;;
52848;SDS011;38714;53.180;5.812;2022-12-18T00:33:29;44.70;;;21.97;;
52848;SDS011;38714;53.180;5.812;2022-12-18T00:36:00;40.93;;;22.37;;
52848;SDS011;38714;53.180;5.812;2022-12-18T00:38:29;51.20;;;25.83;;
52848;SDS011;38714;53.180;5.812;2022-12-18T00:40:55;41.40;;;21.60;;
52848;SDS011;38714;53.180;5.812;2022-12-18T00:43:20;35.30;;;22.53;;
52848;SDS011;38714;53.180;5.812;2022-12-18T00:45:46;60.03;;;24.67;;
52848;SDS011;38714;53.180;5.812;2022-12-18T00:48:11;32.23;;;19.50;;
52848;SDS011;38714;53.180;5.812;2022-12-18T00:50:37;38.20;;;20.80;;
52848;SDS011;38714;53.180;5.812;2022-12-18T00:53:03;39.50;;;24.17;;
52848;SDS011;38714;53.180;5.812;2022-12-18T00:55:28;42.73;;;22.07;;
52848;SDS011;38714;53.180;5.812;2022-12-18T00:57:54;38.10;;;20.57;;
52848;SDS011;38714;53.180;5.812;2022-12-18T01:00:20;30.87;;;19.40;;
52848;SDS011;38714;53.180;5.812;2022-12-18T01:02:46;35.33;;;20.83;;
52848;SDS011;38714;53.180;5.812;2022-12-18T01:05:12;50.77;;;24.27;;
52848;SDS011;38714;53.180;5.812;2022-12-18T01:07:38;46.90;;;22.80;;
52848;SDS011;38714;53.180;5.812;2022-12-18T01:10:04;36.57;;;23.43;;
52848;SDS011;38714;53.180;5.812;2022-12-18T01:12:31;43.17;;;23.90;;
52848;SDS011;38714;53.180;5.812;2022-12-18T01:14:57;36.47;;;18.63;;
52848;SDS011;38714;53.180;5.812;2022-12-18T01:17:23;45.10;;;24.40;;
52848;SDS011;38714;53.180;5.812;2022-12-18T01:19:49;37.10;;;22.50;;
52848;SDS011;38714;53.180;5.812;2022-12-18T01:22:14;46.70;;;23.20;;
52848;SDS011;38714;53.180;5.812;2022-12-18T01:24:40;28.73;;;20.00;;
52848;SDS011;38714;53.180;5.812;2022-12-18T01:27:27;44.23;;;20.20;;
52848;SDS011;38714;53.180;5.812;2022-12-18T01:29:51;40.07;;;25.07;;
52848;SDS011;38714;53.180;5.812;2022-12-18T01:32:17;32.90;;;20.73;;
52848;SDS011;38714;53.180;5.812;2022-12-18T01:34:43;39.20;;;20.13;;
52848;SDS011;38714;53.180;5.812;2022-12-18T01:37:08;40.70;;;21.60;;
52848;SDS011;38714;53.180;5.812;2022-12-18T01:39:34;35.90;;;21.13;;
52848;SDS011;38714;53.180;5.812;2022-12-18T01:42:00;41.97;;;23.50;;
52848;SDS011;38714;53.180;5.812;2022-12-18T01:50:08;37.90;;;20.40;;
52848;SDS011;38714;53.180;5.812;2022-12-18T01:52:36;34.53;;;18.07;;
52848;SDS011;38714;53.180;5.812;2022-12-18T01:55:03;28.90;;;19.27;;
52848;SDS011;38714;53.180;5.812;2022-12-18T01:57:31;37.00;;;16.53;;
52848;SDS011;38714;53.180;5.812;2022-12-18T01:59:59;29.73;;;20.03;;
52848;SDS011;38714;53.180;5.812;2022-12-18T02:02:28;37.77;;;18.73;;
52848;SDS011;38714;53.180;5.812;2022-12-18T02:04:55;41.90;;;18.60;;
52848;SDS011;38714;53.180;5.812;2022-12-18T02:07:31;34.33;;;19.47;;
52848;SDS011;38714;53.180;5.812;2022-12-18T02:09:59;43.13;;;24.80;;
52848;SDS011;38714;53.180;5.812;2022-12-18T02:12:35;42.97;;;22.35;;
52848;SDS011;38714;53.180;5.812;2022-12-18T02:15:23;37.07;;;18.87;;
52848;SDS011;38714;53.180;5.812;2022-12-18T02:17:56;34.60;;;19.97;;
52848;SDS011;38714;53.180;5.812;2022-12-18T02:20:53;34.60;;;16.57;;
52848;SDS011;38714;53.180;5.812;2022-12-18T02:28:52;25.07;;;15.93;;
52848;SDS011;38714;53.180;5.812;2022-12-18T02:31:25;43.50;;;19.33;;
52848;SDS011;38714;53.180;5.812;2022-12-18T02:33:55;40.30;;;19.23;;
52848;SDS011;38714;53.180;5.812;2022-12-18T02:36:23;35.30;;;19.97;;
52848;SDS011;38714;53.180;5.812;2022-12-18T02:38:51;34.00;;;19.97;;
52848;SDS011;38714;53.180;5.812;2022-12-18T02:41:18;31.97;;;18.80;;
52848;SDS011;38714;53.180;5.812;2022-12-18T02:43:47;32.80;;;19.60;;
52848;SDS011;38714;53.180;5.812;2022-12-18T02:46:34;38.97;;;18.37;;
52848;SDS011;38714;53.180;5.812;2022-12-18T02:49:05;35.40;;;17.87;;
52848;SDS011;38714;53.180;5.812;2022-12-18T02:51:52;31.93;;;19.60;;
52848;SDS011;38714;53.180;5.812;2022-12-18T02:54:55;34.40;;;15.50;;
52848;SDS011;38714;53.180;5.812;2022-12-18T02:57:34;30.17;;;18.30;;
52848;SDS011;38714;53.180;5.812;2022-12-18T03:00:08;37.00;;;20.17;;
52848;SDS011;38714;53.180;5.812;2022-12-18T03:02:46;41.78;;;21.17;;
52848;SDS011;38714;53.180;5.812;2022-12-18T03:05:27;40.40;;;20.00;;
52848;SDS011;38714;53.180;5.812;2022-12-18T03:07:59;32.00;;;20.73;;
52848;SDS011;38714;53.180;5.812;2022-12-18T03:13:37;27.23;;;19.40;;
52848;SDS011;38714;53.180;5.812;2022-12-18T03:16:08;32.77;;;17.03;;
52848;SDS011;38714;53.180;5.812;2022-12-18T03:21:06;51.03;;;19.20;;
52848;SDS011;38714;53.180;5.812;2022-12-18T03:23:39;40.87;;;18.80;;
52848;SDS011;38714;53.180;5.812;2022-12-18T03:26:09;32.47;;;18.00;;
52848;SDS011;38714;53.180;5.812;2022-12-18T03:28:38;36.27;;;20.87;;
52848;SDS011;38714;53.180;5.812;2022-12-18T03:31:09;21.38;;;15.82;;
52848;SDS011;38714;53.180;5.812;2022-12-18T03:36:11;24.90;;;16.33;;
52848;SDS011;38714;53.180;5.812;2022-12-18T03:38:37;33.93;;;18.90;;
52848;SDS011;38714;53.180;5.812;2022-12-18T03:41:06;31.83;;;17.70;;
52848;SDS011;38714;53.180;5.812;2022-12-18T03:49:33;40.50;;;18.83;;
52848;SDS011;38714;53.180;5.812;2022-12-18T03:52:57;33.23;;;17.00;;
52848;SDS011;38714;53.180;5.812;2022-12-18T03:55:09;36.37;;;16.97;;
52848;SDS011;38714;53.180;5.812;2022-12-18T03:57:35;26.47;;;16.60;;
52848;SDS011;38714;53.180;5.812;2022-12-18T04:00:10;32.93;;;14.47;;
52848;SDS011;38714;53.180;5.812;2022-12-18T04:02:39;34.30;;;17.13;;
52848;SDS011;38714;53.180;5.812;2022-12-18T04:05:19;26.10;;;17.13;;
52848;SDS011;38714;53.180;5.812;2022-12-18T04:07:47;29.87;;;19.13;;
52848;SDS011;38714;53.180;5.812;2022-12-18T04:10:16;34.37;;;18.33;;
52848;SDS011;38714;53.180;5.812;2022-12-18T04:12:42;29.67;;;15.30;;
52848;SDS011;38714;53.180;5.812;2022-12-18T04:15:08;33.90;;;18.57;;
52848;SDS011;38714;53.180;5.812;2022-12-18T04:17:35;29.13;;;16.43;;
52848;SDS011;38714;53.180;5.812;2022-12-18T04:20:00;29.57;;;19.63;;
52848;SDS011;38714;53.180;5.812;2022-12-18T04:22:26;30.23;;;15.97;;
52848;SDS011;38714;53.180;5.812;2022-12-18T04:24:52;31.67;;;16.67;;
52848;SDS011;38714;53.180;5.812;2022-12-18T04:27:17;35.57;;;17.93;;
52848;SDS011;38714;53.180;5.812;2022-12-18T04:29:43;37.00;;;21.17;;
52848;SDS011;38714;53.180;5.812;2022-12-18T04:32:09;30.07;;;19.20;;
52848;SDS011;38714;53.180;5.812;2022-12-18T04:34:34;40.00;;;16.73;;
52848;SDS011;38714;53.180;5.812;2022-12-18T04:37:00;30.93;;;17.53;;
52848;SDS011;38714;53.180;5.812;2022-12-18T04:39:26;47.77;;;19.57;;
52848;SDS011;38714;53.180;5.812;2022-12-18T04:41:51;28.77;;;16.43;;
52848;SDS011;38714;53.180;5.812;2022-12-18T04:44:17;27.97;;;16.83;;
52848;SDS011;38714;53.180;5.812;2022-12-18T04:46:43;26.83;;;14.77;;
52848;SDS011;38714;53.180;5.812;2022-12-18T04:49:08;29.57;;;19.07;;
52848;SDS011;38714;53.180;5.812;2022-12-18T04:51:35;36.60;;;19.00;;
52848;SDS011;38714;53.180;5.812;2022-12-18T04:54:01;29.70;;;19.77;;
52848;SDS011;38714;53.180;5.812;2022-12-18T04:56:27;29.87;;;16.03;;
52848;SDS011;38714;53.180;5.812;2022-12-18T04:58:52;42.37;;;16.13;;
52848;SDS011;38714;53.180;5.812;2022-12-18T05:01:18;32.93;;;17.90;;
52848;SDS011;38714;53.180;5.812;2022-12-18T05:03:44;29.10;;;17.20;;
52848;SDS011;38714;53.180;5.812;2022-12-18T05:06:10;29.17;;;16.67;;
52848;SDS011;38714;53.180;5.812;2022-12-18T05:08:35;45.53;;;18.97;;
52848;SDS011;38714;53.180;5.812;2022-12-18T05:11:07;24.77;;;16.97;;
52848;SDS011;38714;53.180;5.812;2022-12-18T05:13:35;29.17;;;16.53;;
52848;SDS011;38714;53.180;5.812;2022-12-18T05:16:01;37.83;;;15.63;;
52848;SDS011;38714;53.180;5.812;2022-12-18T05:18:28;39.30;;;17.83;;
52848;SDS011;38714;53.180;5.812;2022-12-18T05:20:54;44.20;;;18.43;;
52848;SDS011;38714;53.180;5.812;2022-12-18T05:23:20;30.80;;;19.37;;
52848;SDS011;38714;53.180;5.812;2022-12-18T05:25:56;29.80;;;17.00;;
52848;SDS011;38714;53.180;5.812;2022-12-18T05:28:24;42.97;;;17.47;;
52848;SDS011;38714;53.180;5.812;2022-12-18T05:30:52;25.47;;;15.37;;
52848;SDS011;38714;53.180;5.812;2022-12-18T05:33:22;29.60;;;16.17;;
52848;SDS011;38714;53.180;5.812;2022-12-18T05:35:52;51.60;;;19.37;;
52848;SDS011;38714;53.180;5.812;2022-12-18T05:38:19;23.00;;;15.30;;
52848;SDS011;38714;53.180;5.812;2022-12-18T05:40:46;30.73;;;14.93;;
52848;SDS011;38714;53.180;5.812;2022-12-18T05:43:12;27.13;;;17.17;;
52848;SDS011;38714;53.180;5.812;2022-12-18T05:45:38;33.43;;;16.20;;
52848;SDS011;38714;53.180;5.812;2022-12-18T05:48:04;23.00;;;15.37;;
52848;SDS011;38714;53.180;5.812;2022-12-18T05:50:33;37.00;;;15.87;;
52848;SDS011;38714;53.180;5.812;2022-12-18T05:53:00;34.97;;;17.53;;
52848;SDS011;38714;53.180;5.812;2022-12-18T05:55:26;24.57;;;15.63;;
52848;SDS011;38714;53.180;5.812;2022-12-18T05:57:51;26.80;;;15.50;;
52848;SDS011;38714;53.180;5.812;2022-12-18T06:00:17;35.87;;;19.13;;
52848;SDS011;38714;53.180;5.812;2022-12-18T06:02:46;21.13;;;12.47;;
52848;SDS011;38714;53.180;5.812;2022-12-18T06:05:12;29.40;;;15.23;;
52848;SDS011;38714;53.180;5.812;2022-12-18T06:07:37;34.50;;;15.43;;
52848;SDS011;38714;53.180;5.812;2022-12-18T06:10:03;29.87;;;14.70;;
52848;SDS011;38714;53.180;5.812;2022-12-18T06:12:29;27.47;;;12.73;;
52848;SDS011;38714;53.180;5.812;2022-12-18T06:14:55;21.07;;;15.50;;
52848;SDS011;38714;53.180;5.812;2022-12-18T06:17:20;22.37;;;13.63;;
52848;SDS011;38714;53.180;5.812;2022-12-18T06:19:46;32.37;;;17.93;;
52848;SDS011;38714;53.180;5.812;2022-12-18T06:22:11;32.00;;;12.60;;
52848;SDS011;38714;53.180;5.812;2022-12-18T06:24:37;23.47;;;12.27;;
52848;SDS011;38714;53.180;5.812;2022-12-18T06:27:02;24.40;;;14.33;;
52848;SDS011;38714;53.180;5.812;2022-12-18T06:29:28;24.57;;;12.13;;
52848;SDS011;38714;53.180;5.812;2022-12-18T06:31:54;21.47;;;12.50;;
52848;SDS011;38714;53.180;5.812;2022-12-18T06:34:19;33.63;;;16.53;;
52848;SDS011;38714;53.180;5.812;2022-12-18T06:36:45;20.13;;;12.23;;
52848;SDS011;38714;53.180;5.812;2022-12-18T06:39:10;32.20;;;14.43;;
52848;SDS011;38714;53.180;5.812;2022-12-18T06:41:36;18.13;;;11.27;;
52848;SDS011;38714;53.180;5.812;2022-12-18T06:44:01;19.73;;;12.30;;
52848;SDS011;38714;53.180;5.812;2022-12-18T06:46:28;25.70;;;11.17;;
52848;SDS011;38714;53.180;5.812;2022-12-18T06:48:53;20.77;;;12.87;;
52848;SDS011;38714;53.180;5.812;2022-12-18T06:51:20;31.77;;;13.00;;
52848;SDS011;38714;53.180;5.812;2022-12-18T06:53:47;18.73;;;11.83;;
52848;SDS011;38714;53.180;5.812;2022-12-18T06:56:12;14.93;;;11.83;;
52848;SDS011;38714;53.180;5.812;2022-12-18T06:58:38;24.27;;;12.33;;
52848;SDS011;38714;53.180;5.812;2022-12-18T07:01:05;17.80;;;12.70;;
52848;SDS011;38714;53.180;5.812;2022-12-18T07:03:32;16.43;;;10.77;;
52848;SDS011;38714;53.180;5.812;2022-12-18T07:05:58;17.90;;;9.67;;
52848;SDS011;38714;53.180;5.812;2022-12-18T07:08:24;16.93;;;9.77;;
52848;SDS011;38714;53.180;5.812;2022-12-18T07:10:50;13.30;;;9.27;;
52848;SDS011;38714;53.180;5.812;2022-12-18T07:13:16;24.03;;;13.23;;
52848;SDS011;38714;53.180;5.812;2022-12-18T07:15:42;16.63;;;12.20;;
52848;SDS011;38714;53.180;5.812;2022-12-18T07:18:08;13.33;;;9.63;;
52848;SDS011;38714;53.180;5.812;2022-12-18T07:20:34;15.63;;;10.47;;
52848;SDS011;38714;53.180;5.812;2022-12-18T07:23:01;22.87;;;13.70;;
52848;SDS011;38714;53.180;5.812;2022-12-18T07:25:27;15.27;;;12.33;;
52848;SDS011;38714;53.180;5.812;2022-12-18T07:27:53;25.53;;;12.20;;
52848;SDS011;38714;53.180;5.812;2022-12-18T07:30:19;13.57;;;8.50;;
52848;SDS011;38714;53.180;5.812;2022-12-18T07:32:45;23.80;;;9.87;;
52848;SDS011;38714;53.180;5.812;2022-12-18T07:35:10;22.47;;;11.03;;
52848;SDS011;38714;53.180;5.812;2022-12-18T07:37:36;22.83;;;10.57;;
52848;SDS011;38714;53.180;5.812;2022-12-18T07:40:01;21.50;;;12.07;;
52848;SDS011;38714;53.180;5.812;2022-12-18T07:42:27;17.33;;;9.53;;
52848;SDS011;38714;53.180;5.812;2022-12-18T07:44:56;20.63;;;10.80;;
52848;SDS011;38714;53.180;5.812;2022-12-18T07:47:25;19.90;;;10.13;;
52848;SDS011;38714;53.180;5.812;2022-12-18T07:49:51;24.30;;;12.03;;
52848;SDS011;38714;53.180;5.812;2022-12-18T07:52:16;17.47;;;11.63;;
52848;SDS011;38714;53.180;5.812;2022-12-18T07:54:42;17.43;;;9.90;;
52848;SDS011;38714;53.180;5.812;2022-12-18T07:57:07;16.70;;;10.30;;
52848;SDS011;38714;53.180;5.812;2022-12-18T07:59:33;13.53;;;9.50;;
52848;SDS011;38714;53.180;5.812;2022-12-18T08:01:59;20.00;;;9.47;;
52848;SDS011;38714;53.180;5.812;2022-12-18T08:04:25;31.83;;;9.17;;
52848;SDS011;38714;53.180;5.812;2022-12-18T08:06:51;16.03;;;8.67;;
52848;SDS011;38714;53.180;5.812;2022-12-18T08:09:17;19.73;;;11.80;;
52848;SDS011;38714;53.180;5.812;2022-12-18T08:11:42;19.53;;;8.97;;
52848;SDS011;38714;53.180;5.812;2022-12-18T08:14:08;14.30;;;9.80;;
52848;SDS011;38714;53.180;5.812;2022-12-18T08:16:34;19.70;;;10.27;;
52848;SDS011;38714;53.180;5.812;2022-12-18T08:19:00;15.97;;;10.17;;
52848;SDS011;38714;53.180;5.812;2022-12-18T08:21:27;12.40;;;9.23;;
52848;SDS011;38714;53.180;5.812;2022-12-18T08:23:55;8.93;;;7.57;;
52848;SDS011;38714;53.180;5.812;2022-12-18T08:26:26;32.23;;;9.90;;
52848;SDS011;38714;53.180;5.812;2022-12-18T08:28:54;18.30;;;8.53;;
52848;SDS011;38714;53.180;5.812;2022-12-18T08:31:21;16.30;;;8.67;;
52848;SDS011;38714;53.180;5.812;2022-12-18T08:33:48;14.07;;;10.17;;
52848;SDS011;38714;53.180;5.812;2022-12-18T08:36:15;20.77;;;10.63;;
52848;SDS011;38714;53.180;5.812;2022-12-18T08:38:42;19.90;;;8.93;;
52848;SDS011;38714;53.180;5.812;2022-12-18T08:41:09;9.70;;;8.30;;
52848;SDS011;38714;53.180;5.812;2022-12-18T08:43:35;14.23;;;9.27;;
52848;SDS011;38714;53.180;5.812;2022-12-18T08:46:21;11.23;;;9.67;;
52848;SDS011;38714;53.180;5.812;2022-12-18T08:48:49;16.23;;;9.47;;
52848;SDS011;38714;53.180;5.812;2022-12-18T08:51:16;23.43;;;10.13;;
52848;SDS011;38714;53.180;5.812;2022-12-18T08:53:43;12.77;;;7.53;;
52848;SDS011;38714;53.180;5.812;2022-12-18T08:56:09;14.50;;;8.40;;
52848;SDS011;38714;53.180;5.812;2022-12-18T08:58:35;12.33;;;7.97;;
52848;SDS011;38714;53.180;5.812;2022-12-18T09:01:01;11.63;;;8.17;;
52848;SDS011;38714;53.180;5.812;2022-12-18T09:03:31;11.47;;;8.60;;
52848;SDS011;38714;53.180;5.812;2022-12-18T09:05:57;16.27;;;9.30;;
52848;SDS011;38714;53.180;5.812;2022-12-18T09:08:24;18.80;;;9.63;;
52848;SDS011;38714;53.180;5.812;2022-12-18T09:10:50;18.70;;;10.40;;
52848;SDS011;38714;53.180;5.812;2022-12-18T09:13:16;15.10;;;9.67;;
52848;SDS011;38714;53.180;5.812;2022-12-18T09:15:47;13.50;;;9.77;;
52848;SDS011;38714;53.180;5.812;2022-12-18T09:18:15;22.60;;;10.10;;
52848;SDS011;38714;53.180;5.812;2022-12-18T09:20:42;15.37;;;8.93;;
52848;SDS011;38714;53.180;5.812;2022-12-18T09:23:08;17.50;;;9.30;;
52848;SDS011;38714;53.180;5.812;2022-12-18T09:25:34;12.10;;;8.07;;
52848;SDS011;38714;53.180;5.812;2022-12-18T09:28:02;22.23;;;11.20;;
52848;SDS011;38714;53.180;5.812;2022-12-18T09:30:29;14.73;;;8.07;;
52848;SDS011;38714;53.180;5.812;2022-12-18T09:32:55;18.57;;;8.67;;
52848;SDS011;38714;53.180;5.812;2022-12-18T09:35:21;15.90;;;8.93;;
52848;SDS011;38714;53.180;5.812;2022-12-18T09:37:47;12.60;;;8.50;;
52848;SDS011;38714;53.180;5.812;2022-12-18T09:40:13;16.20;;;9.80;;
52848;SDS011;38714;53.180;5.812;2022-12-18T09:42:41;19.20;;;9.90;;
52848;SDS011;38714;53.180;5.812;2022-12-18T09:45:12;23.13;;;9.40;;
52848;SDS011;38714;53.180;5.812;2022-12-18T09:47:39;14.60;;;8.87;;
52848;SDS011;38714;53.180;5.812;2022-12-18T09:50:19;13.93;;;8.73;;
52848;SDS011;38714;53.180;5.812;2022-12-18T09:52:55;14.77;;;9.17;;
52848;SDS011;38714;53.180;5.812;2022-12-18T09:57:57;16.70;;;9.00;;
52848;SDS011;38714;53.180;5.812;2022-12-18T10:00:29;16.27;;;7.87;;
52848;SDS011;38714;53.180;5.812;2022-12-18T10:03:00;16.73;;;9.90;;
52848;SDS011;38714;53.180;5.812;2022-12-18T10:08:21;10.43;;;7.80;;
52848;SDS011;38714;53.180;5.812;2022-12-18T10:14:22;13.80;;;10.37;;
52848;SDS011;38714;53.180;5.812;2022-12-18T10:19:58;13.93;;;8.70;;
52848;SDS011;38714;53.180;5.812;2022-12-18T10:27:47;15.23;;;7.90;;
52848;SDS011;38714;53.180;5.812;2022-12-18T10:30:17;13.80;;;6.40;;
52848;SDS011;38714;53.180;5.812;2022-12-18T10:32:44;14.57;;;8.27;;
52848;SDS011;38714;53.180;5.812;2022-12-18T10:35:20;14.97;;;7.50;;
52848;SDS011;38714;53.180;5.812;2022-12-18T10:38:07;9.90;;;6.80;;
52848;SDS011;38714;53.180;5.812;2022-12-18T10:43:20;19.60;;;8.20;;
52848;SDS011;38714;53.180;5.812;2022-12-18T10:51:18;6.53;;;5.57;;
52848;SDS011;38714;53.180;5.812;2022-12-18T10:53:50;12.47;;;6.60;;
52848;SDS011;38714;53.180;5.812;2022-12-18T10:56:19;10.17;;;5.97;;
52848;SDS011;38714;53.180;5.812;2022-12-18T10:58:54;9.60;;;5.87;;
52848;SDS011;38714;53.180;5.812;2022-12-18T11:01:25;10.87;;;7.00;;
52848;SDS011;38714;53.180;5.812;2022-12-18T11:06:20;9.63;;;7.27;;
52848;SDS011;38714;53.180;5.812;2022-12-18T11:11:57;12.97;;;7.90;;
52848;SDS011;38714;53.180;5.812;2022-12-18T11:14:31;8.00;;;5.67;;
52848;SDS011;38714;53.180;5.812;2022-12-18T11:16:59;15.10;;;7.40;;
52848;SDS011;38714;53.180;5.812;2022-12-18T11:19:28;6.73;;;5.43;;
52848;SDS011;38714;53.180;5.812;2022-12-18T11:22:00;11.30;;;6.77;;
52848;SDS011;38714;53.180;5.812;2022-12-18T11:24:33;5.20;;;3.83;;
52848;SDS011;38714;53.180;5.812;2022-12-18T11:29:30;7.17;;;5.33;;
52848;SDS011;38714;53.180;5.812;2022-12-18T11:34:49;10.70;;;4.63;;
52848;SDS011;38714;53.180;5.812;2022-12-18T11:37:20;5.43;;;4.32;;
52848;SDS011;38714;53.180;5.812;2022-12-18T11:39:46;11.87;;;6.53;;
52848;SDS011;38714;53.180;5.812;2022-12-18T11:44:54;10.60;;;4.83;;
52848;SDS011;38714;53.180;5.812;2022-12-18T11:47:34;7.17;;;5.43;;
52848;SDS011;38714;53.180;5.812;2022-12-18T11:50:13;6.57;;;5.23;;
52848;SDS011;38714;53.180;5.812;2022-12-18T11:52:42;7.97;;;5.33;;
52848;SDS011;38714;53.180;5.812;2022-12-18T11:55:31;10.83;;;6.93;;
52848;SDS011;38714;53.180;5.812;2022-12-18T12:00:43;8.20;;;4.53;;
52848;SDS011;38714;53.180;5.812;2022-12-18T12:03:39;9.70;;;4.83;;
52848;SDS011;38714;53.180;5.812;2022-12-18T12:08:44;6.77;;;6.00;;
52848;SDS011;38714;53.180;5.812;2022-12-18T12:17:03;7.30;;;5.70;;
52848;SDS011;38714;53.180;5.812;2022-12-18T12:20:00;5.87;;;4.40;;
52848;SDS011;38714;53.180;5.812;2022-12-18T12:22:43;12.50;;;5.07;;
52848;SDS011;38714;53.180;5.812;2022-12-18T12:25:33;9.70;;;5.70;;
52848;SDS011;38714;53.180;5.812;2022-12-18T12:28:13;8.63;;;4.87;;
52848;SDS011;38714;53.180;5.812;2022-12-18T12:33:48;6.53;;;4.60;;
52848;SDS011;38714;53.180;5.812;2022-12-18T12:36:35;6.73;;;5.00;;
52848;SDS011;38714;53.180;5.812;2022-12-18T12:39:08;5.60;;;3.83;;
52848;SDS011;38714;53.180;5.812;2022-12-18T12:41:38;6.53;;;5.07;;
52848;SDS011;38714;53.180;5.812;2022-12-18T12:44:26;7.13;;;5.47;;
52848;SDS011;38714;53.180;5.812;2022-12-18T12:47:00;8.10;;;4.77;;
52848;SDS011;38714;53.180;5.812;2022-12-18T12:49:37;7.53;;;6.03;;
52848;SDS011;38714;53.180;5.812;2022-12-18T12:52:10;9.47;;;4.37;;
52848;SDS011;38714;53.180;5.812;2022-12-18T12:54:41;5.37;;;3.90;;
52848;SDS011;38714;53.180;5.812;2022-12-18T12:57:12;7.17;;;5.03;;
52848;SDS011;38714;53.180;5.812;2022-12-18T13:02:44;6.03;;;4.27;;
52848;SDS011;38714;53.180;5.812;2022-12-18T13:05:36;8.53;;;5.23;;
52848;SDS011;38714;53.180;5.812;2022-12-18T13:08:30;8.13;;;5.23;;
52848;SDS011;38714;53.180;5.812;2022-12-18T13:10:58;6.27;;;4.93;;
52848;SDS011;38714;53.180;5.812;2022-12-18T13:13:55;7.73;;;4.90;;
52848;SDS011;38714;53.180;5.812;2022-12-18T13:16:25;7.80;;;3.97;;
52848;SDS011;38714;53.180;5.812;2022-12-18T13:18:56;6.17;;;4.83;;
52848;SDS011;38714;53.180;5.812;2022-12-18T13:23:53;8.40;;;5.90;;
52848;SDS011;38714;53.180;5.812;2022-12-18T13:28:52;5.90;;;4.40;;
52848;SDS011;38714;53.180;5.812;2022-12-18T13:34:24;4.83;;;3.33;;
52848;SDS011;38714;53.180;5.812;2022-12-18T13:36:52;8.57;;;4.97;;
52848;SDS011;38714;53.180;5.812;2022-12-18T13:42:36;10.00;;;4.57;;
52848;SDS011;38714;53.180;5.812;2022-12-18T13:44:37;6.90;;;3.93;;
52848;SDS011;38714;53.180;5.812;2022-12-18T13:47:27;8.47;;;6.23;;
52848;SDS011;38714;53.180;5.812;2022-12-18T13:50:02;7.55;;;5.00;;
52848;SDS011;38714;53.180;5.812;2022-12-18T13:52:36;4.33;;;3.60;;
52848;SDS011;38714;53.180;5.812;2022-12-18T13:55:05;7.70;;;4.63;;
52848;SDS011;38714;53.180;5.812;2022-12-18T13:57:39;11.07;;;5.37;;
52848;SDS011;38714;53.180;5.812;2022-12-18T14:00:17;9.43;;;6.03;;
52848;SDS011;38714;53.180;5.812;2022-12-18T14:02:53;10.93;;;5.20;;
52848;SDS011;38714;53.180;5.812;2022-12-18T14:05:23;8.37;;;5.67;;
52848;SDS011;38714;53.180;5.812;2022-12-18T14:07:50;12.07;;;5.03;;
52848;SDS011;38714;53.180;5.812;2022-12-18T14:10:16;8.53;;;5.10;;
52848;SDS011;38714;53.180;5.812;2022-12-18T14:12:44;5.23;;;4.47;;
52848;SDS011;38714;53.180;5.812;2022-12-18T14:15:34;5.15;;;3.38;;
52848;SDS011;38714;53.180;5.812;2022-12-18T14:18:24;7.73;;;4.63;;
52848;SDS011;38714;53.180;5.812;2022-12-18T14:20:54;10.90;;;5.60;;
52848;SDS011;38714;53.180;5.812;2022-12-18T14:25:52;5.67;;;4.93;;
52848;SDS011;38714;53.180;5.812;2022-12-18T14:28:18;10.57;;;5.50;;
52848;SDS011;38714;53.180;5.812;2022-12-18T14:30:45;9.27;;;4.60;;
52848;SDS011;38714;53.180;5.812;2022-12-18T14:36:14;7.47;;;5.20;;
52848;SDS011;38714;53.180;5.812;2022-12-18T14:38:40;5.20;;;3.07;;
52848;SDS011;38714;53.180;5.812;2022-12-18T14:41:13;4.63;;;3.10;;
52848;SDS011;38714;53.180;5.812;2022-12-18T14:43:40;3.73;;;3.07;;
52848;SDS011;38714;53.180;5.812;2022-12-18T14:49:04;4.30;;;3.77;;
52848;SDS011;38714;53.180;5.812;2022-12-18T14:51:59;6.57;;;3.47;;
52848;SDS011;38714;53.180;5.812;2022-12-18T14:54:25;3.45;;;3.15;;
52848;SDS011;38714;53.180;5.812;2022-12-18T15:00:07;6.43;;;3.13;;
52848;SDS011;38714;53.180;5.812;2022-12-18T15:02:44;3.10;;;2.53;;
52848;SDS011;38714;53.180;5.812;2022-12-18T15:05:19;4.33;;;3.23;;
52848;SDS011;38714;53.180;5.812;2022-12-18T15:07:47;6.13;;;3.53;;
52848;SDS011;38714;53.180;5.812;2022-12-18T15:10:19;3.77;;;2.63;;
52848;SDS011;38714;53.180;5.812;2022-12-18T15:12:47;6.97;;;4.13;;
52848;SDS011;38714;53.180;5.812;2022-12-18T15:20:38;4.93;;;3.33;;
52848;SDS011;38714;53.180;5.812;2022-12-18T15:23:23;7.00;;;3.70;;
52848;SDS011;38714;53.180;5.812;2022-12-18T15:25:58;7.70;;;3.53;;
52848;SDS011;38714;53.180;5.812;2022-12-18T15:28:38;5.57;;;4.37;;
52848;SDS011;38714;53.180;5.812;2022-12-18T15:31:05;5.40;;;3.13;;
52848;SDS011;38714;53.180;5.812;2022-12-18T15:33:38;5.77;;;3.13;;
52848;SDS011;38714;53.180;5.812;2022-12-18T15:36:10;5.22;;;3.67;;
52848;SDS011;38714;53.180;5.812;2022-12-18T15:38:40;5.07;;;3.37;;
52848;SDS011;38714;53.180;5.812;2022-12-18T15:41:11;4.43;;;3.00;;
52848;SDS011;38714;53.180;5.812;2022-12-18T15:43:39;5.10;;;3.90;;
52848;SDS011;38714;53.180;5.812;2022-12-18T15:46:05;7.13;;;4.93;;
52848;SDS011;38714;53.180;5.812;2022-12-18T15:48:39;4.27;;;3.87;;
52848;SDS011;38714;53.180;5.812;2022-12-18T15:53:50;5.63;;;4.20;;
52848;SDS011;38714;53.180;5.812;2022-12-18T15:56:19;3.67;;;3.07;;
52848;SDS011;38714;53.180;5.812;2022-12-18T15:59:16;6.20;;;3.97;;
52848;SDS011;38714;53.180;5.812;2022-12-18T16:01:44;4.63;;;3.07;;
52848;SDS011;38714;53.180;5.812;2022-12-18T16:04:12;7.17;;;2.43;;
52848;SDS011;38714;53.180;5.812;2022-12-18T16:06:38;4.27;;;3.17;;
52848;SDS011;38714;53.180;5.812;2022-12-18T16:09:04;9.10;;;5.57;;
52848;SDS011;38714;53.180;5.812;2022-12-18T16:11:30;6.53;;;5.60;;
52848;SDS011;38714;53.180;5.812;2022-12-18T16:14:06;2.80;;;2.53;;
52848;SDS011;38714;53.180;5.812;2022-12-18T16:16:31;9.97;;;3.73;;
52848;SDS011;38714;53.180;5.812;2022-12-18T16:18:57;5.93;;;5.23;;
52848;SDS011;38714;53.180;5.812;2022-12-18T16:21:23;5.53;;;3.53;;
52848;SDS011;38714;53.180;5.812;2022-12-18T16:23:48;4.83;;;3.43;;
52848;SDS011;38714;53.180;5.812;2022-12-18T16:26:14;6.73;;;4.90;;
52848;SDS011;38714;53.180;5.812;2022-12-18T16:28:40;8.20;;;4.77;;
52848;SDS011;38714;53.180;5.812;2022-12-18T16:31:07;6.57;;;4.33;;
52848;SDS011;38714;53.180;5.812;2022-12-18T16:33:35;4.60;;;3.80;;
52848;SDS011;38714;53.180;5.812;2022-12-18T16:36:01;4.40;;;3.70;;
52848;SDS011;38714;53.180;5.812;2022-12-18T16:38:27;5.87;;;4.00;;